AirNav   Air Wisconsin Up To $57,000 Bonus
 
 727 users online  

8TS1 Retta Airport
Burleson, Texas, USA

GOING TO BURLESON?


FAA INFORMATION EFFECTIVE 11 AUGUST 2022

Location

FAA Identifier: 8TS1
Lat/Long: 32-32-30.4960N 097-14-31.0480W
32-32.508267N 097-14.517467W
32.5418044,-97.2419578
(estimated)
Elevation: 700 ft. / 213 m (estimated)
Variation: 07E (1985)
From city: 3 miles S of BURLESON, TX
Time zone: UTC -5 (UTC -6 during Standard Time)
Zip code: 76028

Airport Operations

Airport use: Private use. Permission required prior to landing
Activation date: 12/1985
Control tower: no
ARTCC: FORT WORTH CENTER
FSS: FORT WORTH FLIGHT SERVICE STATION
Attendance: 0800-2000
Wind indicator: yes
Segmented circle: yes

Airport Communications

WX AWOS-3PT at FWS (4 nm NW): 120.025 (817-426-4172)
WX ASOS at GKY (10 nm NE): 127.375 (817-557-0251)
WX AWOS-3P at GPM (14 nm NE): 118.475 (972-606-1433)
WX AWOS-3 at CPT (15 nm SW): 119.525 (817-641-4135)
WX AWOS-3 at JWY (17 nm E): 119.575 (972-937-4747)
WX ASOS at FTW (18 nm N): PHONE 817-740-3346

Nearby radio navigation aids

VOR radial/distance  VOR name  Freq  Var
FUZr183/21.1RANGER VORTAC115.7006E
TTTr201/22.1MAVERICK VOR/DME113.1006E
CVEr213/27.0COWBOY VOR/DME116.2006E
MQPr097/39.7MILLSAP VORTAC117.7009E

 
NDB name  Hdg/Dist  Freq  Var  ID
MESQUITE243/39.424803EPQF .--. --.- ..-.

Airport Services

Runway Information

Runway 17/35

Dimensions: 2200 x 50 ft. / 671 x 15 m
Surface: turf
Runway edge markings: 17/35 EDGE MKD WITH WHITE TIRES.
RUNWAY 17  RUNWAY 35
Traffic pattern: leftleft

Airport Ownership and Management from official FAA records

Ownership: Privately-owned
Owner: P. W. SMITH
RT 6, BOX 924
BURLESON, TX 76028
Manager: P. W. SMITH
RT 6, BOX 924
BURLESON, TX 76028

Airport Operational Statistics

Aircraft based on the field: 1
Single engine airplanes: 1
    

Additional Remarks

FOR CD CTC REGIONAL APCH AT 972-615-2799.

Instrument Procedures

There are no published instrument procedures at 8TS1.

Some nearby airports with instrument procedures:

KFWS - Fort Worth Spinks Airport (4 nm NW)
KGKY - Arlington Municipal Airport (10 nm NE)
KGPM - Grand Prairie Municipal Airport (14 nm NE)
KCPT - Cleburne Regional Airport (15 nm SW)
KNFW - Fort Worth Naval Air Station JRB (Carswell Field) Airport (17 nm NW)
KJWY - Mid-Way Regional Airport (17 nm E)
KFTW - Fort Worth Meacham International Airport (18 nm N)
50F - Bourland Field Airport (18 nm W)
 
Loc | Ops | Rwys | IFR | FBO | Links
Com | Nav | Svcs | Stats | Notes

City of Fort Worth
 
Area around 8TS1 (Retta Airport)
 
Road maps at: MapQuest Bing Google
 
Aerial photo
No photo
 
Sectional chart

 
Airport distance calculator
Flying to Retta Airport? Find the distance to fly.

From to 8TS1

Sunrise and sunset
Times for 17-Aug-2022
 Local
(UTC-5)
 Zulu
(UTC)
Morning civil twilight06:2911:29
Sunrise06:5511:55
Sunset20:1101:11
Evening civil twilight20:3701:37

Current date and time
Zulu (UTC)  17-Aug-2022 05:45:30
Local (UTC-5)  17-Aug-2022 00:45:30
 
METAR
KFWS 
3nm NW 
170535Z AUTO 19004KT 10SM CLR 28/16 A2993 RMK AO2 T02870160
KGKY 
10nm NE 
170453Z AUTO 17005KT 10SM CLR 31/17 A2990 RMK AO2 SLP114 T03110167
KGPM 
14nm NE 
170535Z AUTO 21003KT 10SM CLR 31/15 A2991 RMK AO2 T03120151
KCPT 
15nm SW 
170515Z AUTO 16006KT 10SM CLR 30/16 A2993 RMK A01
KNFW 
17nm NW 
170452Z AUTO 16009KT 10SM CLR A2990 RMK AO2 SLP111 TSNO $
KJWY 
17nm E 
170535Z AUTO 00000KT 10SM CLR 28/17 A2993 RMK AO2 T02760170
KFTW 
19nm N 
170453Z 19005KT 10SM CLR 30/17 A2990 RMK AO2 SLP112 T03000172
TAF
KGKY 
10nm NE 
170248Z 1703/1724 19006KT P6SM BKN250 FM171500 32010KT P6SM SCT100 BKN250 FM172200 35010KT P6SM VCTS BKN100CB
KNFW 
17nm NW 
1623/1723 16008KT 9999 FEW080 BKN250 QNH2982INS FM170100 VRB04KT 9999 BKN250 QNH2984INS FM171200 26008KT 9999 SCT080 BKN250 QNH2991INS FM171800 36010KT 9999 VCTS BKN065CB OVC150 QNH2984INS AUTOMATED SENSOR METWATCH 1704 TIL 1711 T26/1712Z T39/1722Z FN20048
KFTW 
19nm N 
170248Z 1703/1724 18006KT P6SM BKN250 FM171500 32010KT P6SM SCT100 BKN250 FM172200 35010KT P6SM VCTS BKN100CB
NOTAMs
Click for the latest NOTAMs
NOTAMs are issued by the DoD/FAA and will open in a separate window not controlled by AirNav.

 

 
 

Would you like to see your business listed on this page?

 If your business provides an interesting product or service to pilots, flight crews, aircraft, or users of the Retta Airport, you should consider listing it here.  To start the listing process, click on the button below
 
Add a business
 

Other Pages about Retta Airport

Update a link
 
Copyright © AirNav, LLC. All rights reserved. Privacy Policy  Contact